Date,TemperatureHighF,TemperatureAvgF,TemperatureLowF,DewpointHighF,DewpointAvgF,DewpointLowF,HumidityHigh,HumidityAvg,HumidityLow,PressureMaxIn,PressureMinIn,WindSpeedMaxMPH,WindSpeedAvgMPH,GustSpeedMaxMPH,PrecipitationSumIn
2013-1-1,37.0,33.0,29.0,13.0,8.0,1.0,48,35,21,0.00,40.00,10,4,34,0.00
2013-1-2,48.0,40.6,34.0,8.0,1.3,-3.0,27,19,13,0.00,40.00,9,4,30,0.00
2013-1-3,47.0,39.3,33.0,9.0,5.0,1.0,30,24,18,0.00,40.00,12,3,23,0.00
2013-1-4,47.0,38.4,33.0,13.0,7.5,3.0,35,28,23,0.00,40.00,7,4,10,0.00
2013-1-5,47.0,38.6,34.0,10.0,5.4,0.0,31,25,18,0.00,40.00,6,2,11,0.00
2013-1-6,37.0,33.9,32.0,27.0,18.5,0.0,77,57,20,0.00,40.00,24,11,50,0.00
2013-1-7,54.0,44.9,33.0,23.0,9.1,-5.0,45,25,9,0.00,40.00,15,9,46,0.00
2013-1-8,60.0,49.6,44.0,27.0,24.0,21.0,46,37,25,0.00,40.00,10,5,39,0.00
2013-1-9,55.0,49.3,43.0,27.0,24.7,22.0,45,38,31,0.00,40.00,16,6,36,0.00
2013-1-10,43.0,29.8,23.0,31.0,16.1,9.0,76,57,41,0.00,40.00,39,22,72,0.00
2013-1-11,30.0,25.8,22.0,15.0,9.5,-2.0,71,51,26,0.00,40.00,19,12,33,0.00
2013-1-12,33.0,26.0,21.0,9.0,5.0,-3.0,54,41,28,0.00,40.00,6,4,21,0.00
2013-1-13,31.0,23.9,19.0,10.0,0.8,-8.0,60,37,26,0.00,40.00,10,4,30,0.00
2013-1-14,32.0,23.5,16.0,-3.0,-10.4,-17.0,34,22,16,0.00,40.00,6,2,25,0.00
2013-1-15,43.0,34.1,25.0,13.0,4.7,-3.0,40,29,16,0.00,40.00,6,2,28,0.00
2013-1-16,54.0,43.9,36.0,15.0,7.6,-3.0,39,24,13,0.00,40.00,7,2,21,0.00
2013-1-17,56.0,48.1,43.0,0.0,-6.5,-13.0,14,10,6,0.00,40.00,7,3,33,0.00
2013-1-18,54.0,45.9,39.0,-3.0,-7.1,-11.0,13,10,7,0.00,40.00,7,3,14,0.00
2013-1-19,58.0,49.7,44.0,-6.0,-10.7,-16.0,10,8,6,0.00,40.00,8,3,26,0.00
2013-1-20,57.0,50.3,43.0,-9.0,-10.9,-15.0,9,7,6,0.00,40.00,8,4,30,0.00
2013-1-21,61.0,51.6,47.0,0.0,-8.8,-18.0,13,8,5,0.00,40.00,8,4,30,0.00
2013-1-22,59.0,50.6,45.0,5.0,1.1,-4.0,17,13,9,0.00,40.00,8,3,11,0.00
2013-1-23,56.0,49.0,43.0,33.0,11.3,1.0,67,24,13,0.00,40.00,7,2,15,0.02
2013-1-24,46.0,42.2,40.0,44.0,39.0,33.0,97,89,60,0.00,40.00,5,1,13,0.33
2013-1-25,45.0,42.4,41.0,42.0,40.8,39.0,97,94,86,0.00,40.00,26,1,157,0.13
2013-1-26,54.0,44.3,41.0,44.0,38.4,29.0,96,80,63,0.00,40.00,0,0,0,0.11
2013-1-27,41.0,35.6,32.0,33.0,23.2,13.0,80,61,36,0.00,40.00,0,0,0,0.01
2013-1-28,35.0,31.2,27.0,20.0,15.5,9.0,76,53,33,0.00,40.00,14,4,22,0.00
2013-1-29,57.0,41.0,31.0,26.0,20.0,14.0,57,44,29,0.00,40.00,12,3,30,0.00
2013-1-30,55.0,46.3,39.0,27.0,24.4,21.0,50,43,33,0.00,40.00,6,2,12,0.00
2013-1-31,56.0,49.6,44.0,23.0,21.3,19.0,41,33,25,0.00,40.00,6,3,15,0.00
2013-2-1,58.0,48.6,43.0,27.0,22.2,15.0,39,35,30,0.00,40.00,6,3,13,0.00
2013-2-2,58.0,50.5,43.0,32.0,19.5,13.0,65,30,17,0.00,40.00,5,2,18,0.00
2013-2-3,58.0,48.3,40.0,34.0,29.4,20.0,69,49,32,0.00,40.00,7,3,16,0.00
2013-2-4,61.0,51.5,45.0,23.0,15.6,12.0,35,24,16,0.00,40.00,7,4,27,0.00
2013-2-5,58.0,51.4,45.0,19.0,15.1,2.0,33,24,12,0.00,40.00,28,14,44,0.00
2013-2-6,56.0,46.1,41.0,24.0,5.4,-22.0,51,22,4,0.00,40.00,28,11,50,0.00
2013-2-7,55.0,44.5,33.0,19.0,4.0,-11.0,55,21,8,0.00,40.00,32,14,48,0.00
2013-2-8,34.0,30.7,28.0,25.0,18.5,15.0,79,61,49,0.00,40.00,32,17,56,0.00
2013-2-9,44.0,33.9,28.0,19.0,16.1,9.0,69,49,34,0.00,40.00,24,11,39,0.00
2013-2-10,40.0,35.7,29.0,15.0,11.4,7.0,51,37,28,0.00,40.00,14,5,33,0.00
2013-2-11,43.0,34.4,30.0,10.0,2.4,-6.0,38,26,12,0.00,40.00,15,7,46,0.00
2013-2-12,46.0,39.0,32.0,10.0,4.7,-4.0,30,24,18,0.00,40.00,7,4,17,0.00
2013-2-13,56.0,45.2,37.0,15.0,8.9,3.0,29,23,16,0.00,40.00,9,4,26,0.00
2013-2-14,57.0,48.1,41.0,18.0,16.1,11.0,38,28,18,0.00,40.00,10,5,30,0.00
2013-2-15,59.0,50.5,46.0,16.0,10.4,5.0,27,20,16,0.00,40.00,10,5,30,0.00
2013-2-16,59.0,50.5,44.0,11.0,1.8,-3.0,21,14,8,0.00,40.00,16,4,27,0.00
2013-2-17,59.0,49.4,42.0,19.0,8.6,-4.0,30,19,10,0.00,40.00,18,9,37,0.00
2013-2-18,54.0,46.8,41.0,27.0,13.5,6.0,55,27,18,0.00,40.00,25,9,42,0.00
2013-2-19,43.0,34.8,28.0,28.0,21.7,13.0,72,59,29,0.00,40.00,30,20,57,0.00
2013-2-20,45.0,34.3,26.0,20.0,12.8,5.0,70,43,23,0.00,40.00,28,14,49,0.00
2013-2-21,42.0,35.5,30.0,11.0,6.0,1.0,40,29,19,0.00,40.00,10,6,24,0.00
2013-2-22,50.0,40.3,32.0,15.0,8.0,3.0,36,27,16,0.00,40.00,8,5,15,0.00
2013-2-23,48.0,41.8,33.0,24.0,17.7,4.0,58,39,17,0.00,40.00,28,13,48,0.00
2013-2-24,43.0,35.8,26.0,7.0,-3.3,-8.0,33,19,11,0.00,40.00,20,7,49,0.00
2013-2-25,51.0,41.7,32.0,20.0,0.5,-13.0,33,18,7,0.00,40.00,15,6,35,0.00
2013-2-26,51.0,42.2,37.0,4.0,0.3,-13.0,21,17,7,0.00,40.00,10,5,25,0.00
2013-2-27,52.0,41.3,33.0,4.0,0.0,-3.0,23,18,12,0.00,40.00,7,4,14,0.00
2013-2-28,58.0,47.1,39.0,8.0,3.3,1.0,23,16,11,0.00,40.00,7,5,12,0.00
2013-3-1,64.0,53.8,47.0,18.0,12.2,4.0,25,19,14,0.00,40.00,9,6,19,0.00
2013-3-2,63.0,55.7,49.0,20.0,16.5,13.0,27,21,15,0.00,40.00,23,7,51,0.00
2013-3-3,54.0,48.9,42.0,31.0,26.1,20.0,56,41,27,0.00,40.00,26,16,51,0.00
2013-3-4,61.0,50.3,41.0,29.0,21.9,14.0,60,35,18,0.00,40.00,26,10,43,0.00
2013-3-5,58.0,50.5,44.0,27.0,20.8,8.0,45,32,17,0.00,40.00,22,11,42,0.00
2013-3-6,45.0,40.8,38.0,30.0,23.7,14.0,64,51,33,0.00,40.00,38,19,56,0.00
2013-3-7,47.0,39.4,33.0,29.0,23.5,19.0,70,53,40,0.00,40.00,24,11,46,0.00
2013-3-8,38.0,34.1,31.0,30.0,26.1,22.0,93,73,57,0.00,40.00,25,9,41,0.13
2013-3-9,53.0,40.6,33.0,26.0,16.8,-5.0,72,43,12,0.00,40.00,25,15,43,0.01
2013-3-10,62.0,49.9,38.0,11.0,-0.3,-9.0,21,13,7,0.00,40.00,10,4,23,0.00
2013-3-11,63.0,54.6,45.0,14.0,3.8,-8.0,21,13,8,0.00,40.00,7,5,13,0.00
2013-3-12,67.0,57.6,50.0,16.0,7.1,2.0,24,14,8,0.00,40.00,9,6,16,0.00
2013-3-13,72.0,61.2,53.0,17.0,13.1,11.0,19,15,11,0.00,40.00,10,6,13,0.00
2013-3-14,76.0,65.2,57.0,24.0,16.1,11.0,21,15,10,0.00,40.00,14,7,25,0.00
2013-3-15,75.0,66.2,60.0,37.0,22.2,10.0,38,20,8,0.00,40.00,27,11,38,0.00
2013-3-16,69.0,60.8,51.0,34.0,24.0,11.0,51,27,11,0.00,40.00,28,17,48,0.00
2013-3-17,63.0,57.0,50.0,27.0,16.0,-15.0,39,22,5,0.00,40.00,28,16,48,0.00
2013-3-18,66.0,57.2,49.0,24.0,9.4,-29.0,30,17,2,0.00,40.00,26,12,44,0.00
2013-3-19,66.0,56.2,48.0,27.0,22.0,17.0,39,27,16,0.00,40.00,29,15,44,0.00
2013-3-20,59.0,52.4,46.0,32.0,26.3,21.0,51,37,25,0.00,40.00,29,14,52,0.00
2013-3-21,66.0,57.6,46.0,29.0,14.2,-13.0,51,20,5,0.00,40.00,27,14,54,0.00
2013-3-22,60.0,53.8,44.0,27.0,17.4,-6.0,35,24,9,0.00,40.00,15,8,29,0.00
2013-3-23,58.0,51.3,44.0,11.0,-1.1,-16.0,21,12,7,0.00,40.00,17,7,31,0.00
2013-3-24,62.0,51.5,42.0,20.0,4.0,-7.0,30,16,7,0.00,40.00,8,5,15,0.00
2013-3-25,65.0,55.9,48.0,18.0,13.8,-4.0,28,19,9,0.00,40.00,16,6,40,0.00
2013-3-26,61.0,53.6,49.0,30.0,15.2,-5.0,48,24,9,0.00,40.00,29,17,49,0.00
2013-3-27,61.0,54.2,49.0,28.0,24.1,21.0,37,31,23,0.00,40.00,26,17,42,0.00
2013-3-28,62.0,57.4,52.0,32.0,25.7,21.0,35,29,25,0.00,40.00,20,14,37,0.00
2013-3-29,67.0,59.0,51.0,27.0,19.6,13.0,31,22,14,0.00,40.00,18,8,25,0.00
2013-3-30,68.0,60.7,54.0,30.0,21.9,-99.9,33,24,13,0.00,40.00,14,7,29,0.00
2013-3-31,59.0,50.8,43.0,37.0,33.3,27.0,72,53,33,0.00,40.00,21,13,50,0.00
2013-4-1,56.0,47.1,39.0,33.0,27.3,20.0,69,48,28,0.00,40.00,21,13,44,0.00
2013-4-2,65.0,55.4,46.0,35.0,23.1,18.0,43,29,16,0.00,40.00,12,5,22,0.00
2013-4-3,69.0,62.5,52.0,28.0,22.6,19.0,29,22,17,0.00,40.00,14,9,26,0.00
2013-4-4,62.0,57.0,48.0,36.0,29.2,17.0,57,35,20,0.00,40.00,27,18,66,0.00
2013-4-5,64.0,54.9,47.0,36.0,28.0,8.0,64,39,12,0.00,40.00,30,18,54,0.00
2013-4-6,67.0,59.4,53.0,33.0,22.8,3.0,36,25,10,0.00,40.00,31,15,42,0.00
2013-4-7,68.0,56.6,46.0,34.0,26.4,3.0,55,33,10,0.00,40.00,34,16,53,0.00
2013-4-8,46.0,39.6,33.0,34.0,27.7,18.0,94,63,43,0.00,40.00,33,19,57,0.07
2013-4-9,57.0,48.8,38.0,18.0,1.9,-10.0,43,15,6,0.00,40.00,26,11,80,0.01
2013-4-10,72.0,57.4,45.0,23.0,8.7,0.0,25,15,8,0.00,40.00,14,7,49,0.00
2013-4-11,70.0,62.1,54.0,28.0,18.4,14.0,30,19,12,0.00,40.00,21,11,40,0.00
2013-4-12,71.0,62.7,52.0,24.0,21.9,17.0,29,21,16,0.00,40.00,21,11,36,0.00
2013-4-13,69.0,61.1,56.0,32.0,23.6,-5.0,38,25,7,0.00,40.00,34,22,62,0.00
2013-4-14,68.0,59.5,51.0,34.0,25.8,12.0,41,28,14,0.00,40.00,34,21,64,0.00
2013-4-15,53.0,48.0,40.0,28.0,21.3,13.0,45,35,27,0.00,40.00,41,26,80,0.00
2013-4-16,46.0,38.5,30.0,20.0,14.1,7.0,54,37,27,0.00,40.00,41,17,80,0.00
2013-4-17,54.0,43.7,34.0,9.0,1.5,-4.0,31,18,11,0.00,40.00,13,8,33,0.00
2013-4-18,58.0,46.8,37.0,3.0,-0.4,-3.0,22,14,9,0.00,40.00,12,6,32,0.00
2013-4-19,67.0,57.3,46.0,22.0,6.3,-3.0,22,13,8,0.00,40.00,20,8,37,0.00
2013-4-20,72.0,64.1,52.0,29.0,18.3,4.0,27,18,9,0.00,40.00,16,9,29,0.00
2013-4-21,78.0,67.4,57.0,28.0,18.2,0.0,24,16,9,0.00,40.00,25,10,35,0.00
2013-4-22,75.0,69.2,62.0,26.0,19.1,-2.0,22,15,6,0.00,40.00,32,14,41,0.00
2013-4-23,68.0,61.1,54.0,25.0,13.5,6.0,32,17,9,0.00,40.00,18,6,41,0.00
2013-4-24,68.0,61.2,57.0,24.0,7.9,-3.0,27,13,6,0.00,40.00,17,8,32,0.00
2013-4-25,71.0,61.6,53.0,27.0,13.6,-1.0,29,16,7,0.00,40.00,20,10,33,0.00
2013-4-26,76.0,66.9,60.0,32.0,15.0,-1.0,29,16,6,0.00,40.00,19,9,30,0.00
2013-4-27,80.0,70.4,60.0,23.0,14.7,7.0,20,13,7,0.00,40.00,19,9,29,0.00
2013-4-28,82.0,73.4,65.0,30.0,20.1,12.0,23,14,7,0.00,40.00,21,11,32,0.00
2013-4-29,81.0,74.3,64.0,36.0,24.4,18.0,32,16,10,0.00,40.00,28,11,40,0.00
2013-4-30,78.0,68.2,62.0,37.0,30.1,24.0,33,25,17,0.00,40.00,28,20,43,0.00
2013-5-1,71.0,63.0,53.0,24.0,-6.3,-27.0,21,8,2,0.00,40.00,14,7,41,0.00
2013-5-2,70.0,61.4,55.0,-8.0,-13.9,-22.0,6,4,2,0.00,40.00,15,8,43,0.00
2013-5-3,76.0,66.2,55.0,18.0,-8.3,-22.0,15,6,2,0.00,40.00,20,8,31,0.00
2013-5-4,76.0,67.6,60.0,21.0,12.8,-3.0,22,12,6,0.00,40.00,17,11,41,0.00
2013-5-5,60.0,53.8,46.0,33.0,24.8,10.0,57,34,15,0.00,40.00,24,10,46,0.00
2013-5-6,51.0,45.8,40.0,41.0,34.8,29.0,88,66,53,0.00,40.00,24,8,38,0.16
2013-5-7,55.0,47.7,41.0,37.0,33.4,26.0,78,58,39,0.00,40.00,25,16,39,0.01
2013-5-8,61.0,53.7,46.0,37.0,32.3,26.0,57,45,30,0.00,40.00,16,6,27,0.00
2013-5-9,66.0,55.8,49.0,41.0,34.2,31.0,73,45,30,0.00,40.00,20,7,39,0.19
2013-5-10,75.0,66.9,58.0,35.0,26.1,-99.9,37,24,14,0.00,40.00,11,8,29,0.18
2013-5-11,80.0,72.5,66.0,38.0,26.3,-99.9,28,19,12,0.00,40.00,12,6,25,0.00
2013-5-12,85.0,76.0,69.0,37.0,29.4,17.0,29,19,9,0.00,40.00,17,10,24,0.00
2013-5-13,85.0,77.1,70.0,32.0,25.6,18.0,23,15,9,0.00,40.00,21,13,42,0.00
2013-5-14,79.0,70.0,61.0,29.0,20.8,10.0,29,16,7,0.00,40.00,27,15,63,0.00
2013-5-15,77.0,68.2,60.0,35.0,29.2,21.0,34,24,14,0.00,40.00,29,21,47,0.00
2013-5-16,71.0,55.5,50.0,36.0,6.7,-99.9,57,30,7,0.00,40.00,37,22,65,0.00
2013-5-17,68.0,56.3,50.0,38.0,31.5,-99.9,62,43,26,0.00,40.00,32,21,57,0.00
2013-5-18,71.0,64.7,56.0,26.0,23.6,19.0,29,21,16,0.00,40.00,31,14,42,0.00
2013-5-19,75.0,68.1,62.0,30.0,19.1,-5.0,25,16,6,0.00,40.00,24,8,33,0.00
2013-5-20,75.0,65.9,56.0,29.0,17.1,10.0,25,16,9,0.00,40.00,18,7,33,0.00
2013-5-21,76.0,67.4,60.0,24.0,15.9,-16.0,25,14,3,0.00,40.00,26,17,53,0.00
2013-5-22,64.0,58.4,50.0,29.0,20.3,-12.0,37,24,5,0.00,40.00,33,20,55,0.00
2013-5-23,64.0,58.2,50.0,16.0,5.4,-13.0,20,12,5,0.00,40.00,38,18,53,0.00
2013-5-24,72.0,64.8,55.0,22.0,6.8,-3.0,23,11,6,0.00,40.00,21,9,36,0.00
2013-5-25,75.0,64.9,56.0,23.0,15.8,-15.0,22,16,4,0.00,40.00,29,15,42,0.00
2013-5-26,72.0,61.5,52.0,33.0,24.0,6.0,43,25,11,0.00,40.00,33,21,47,0.00
2013-5-27,74.0,65.2,59.0,38.0,26.6,-1.0,45,25,7,0.00,40.00,36,20,52,0.00
2013-5-28,70.0,62.6,54.0,36.0,33.0,26.0,47,34,20,0.00,40.00,36,21,52,0.00
2013-5-29,70.0,66.7,61.0,39.0,34.2,11.0,40,31,12,0.00,40.00,27,17,47,0.00
2013-5-30,81.0,71.3,63.0,35.0,27.7,-16.0,33,21,3,0.00,40.00,29,13,42,0.00
2013-5-31,83.0,78.2,66.0,22.0,16.6,-1.0,13,10,5,0.00,40.00,29,7,42,0.00
2013-6-1,86.0,79.8,69.0,27.0,13.5,6.0,14,9,5,0.00,40.00,15,8,23,0.00
2013-6-4,86.0,77.6,68.0,40.0,29.9,22.0,28,18,10,0.00,40.00,20,9,33,0.00
2013-6-5,90.0,81.7,71.0,42.0,26.7,16.0,28,15,7,0.00,40.00,20,9,27,0.00
2013-6-6,92.0,84.2,73.0,42.0,24.4,16.0,25,13,6,0.00,40.00,19,10,27,0.00
2013-6-7,93.0,86.1,77.0,31.0,20.9,11.0,16,10,5,0.00,40.00,19,8,25,0.00
2013-6-8,96.0,88.8,79.0,40.0,20.9,13.0,22,9,5,0.00,40.00,17,9,29,0.00
2013-6-9,88.0,81.9,73.0,39.0,17.8,-18.0,21,11,2,0.00,40.00,16,10,33,0.00
2013-6-10,73.0,68.7,63.0,38.0,20.6,1.0,39,18,6,0.00,40.00,28,13,47,0.00
2013-6-11,86.0,76.2,66.0,35.0,29.1,18.0,31,19,9,0.00,40.00,34,12,53,0.00
2013-6-12,85.0,75.5,66.0,40.0,26.1,18.0,35,17,9,0.00,40.00,25,13,51,0.00
2013-6-13,78.0,70.8,64.0,33.0,17.4,-99.9,29,16,4,0.00,40.00,29,19,51,0.00
2013-6-14,81.0,76.2,66.0,26.0,3.1,-99.9,19,8,4,0.00,40.00,19,11,33,0.00
2013-6-15,84.0,73.3,65.0,22.0,16.6,10.0,19,12,6,0.00,40.00,24,14,42,0.00
2013-6-16,82.0,75.3,66.0,26.0,19.8,13.0,20,13,9,0.00,40.00,26,15,38,0.00
2013-6-17,84.0,74.7,68.0,32.0,24.8,16.0,26,16,8,0.00,40.00,30,16,40,0.00
2013-6-18,79.0,69.5,58.0,34.0,25.5,10.0,40,21,7,0.00,40.00,33,20,49,0.00
2013-6-19,77.0,65.6,50.0,35.0,24.6,13.0,46,25,9,0.00,40.00,21,13,47,0.00
2013-6-20,75.0,73.8,71.0,23.0,14.3,12.0,16,10,9,0.00,40.00,24,9,36,0.00
2013-6-22,83.0,76.1,70.0,26.0,21.7,18.0,19,13,9,0.00,40.00,23,12,33,0.00
2013-6-23,79.0,70.1,59.0,40.0,31.2,24.0,45,25,15,0.00,40.00,30,18,56,0.00
2013-6-24,67.0,62.2,59.0,46.0,38.1,27.0,57,42,26,0.00,40.00,32,24,65,0.00
2013-6-28,95.0,87.6,79.0,44.0,38.7,21.0,28,19,7,0.00,40.00,21,11,32,0.00
2013-6-29,97.0,90.1,83.0,41.0,37.5,27.0,22,16,9,0.00,40.00,20,12,30,0.00
2013-6-30,98.0,93.3,84.0,36.0,29.5,23.0,18,11,7,0.00,40.00,20,12,44,0.00
2013-7-1,99.0,90.8,83.0,38.0,32.0,28.0,17,13,9,0.00,40.00,13,7,25,0.00
2013-7-2,95.0,86.9,79.0,44.0,38.5,33.0,25,19,12,0.00,40.00,23,11,38,0.00
2013-7-3,97.0,87.8,80.0,42.0,38.4,34.0,25,18,13,0.00,40.00,19,10,36,0.00
2013-7-4,97.0,88.2,79.0,50.0,41.8,35.0,37,21,13,0.00,40.00,22,12,36,0.00
2013-7-5,91.0,83.2,77.0,49.0,42.0,33.0,35,24,14,0.00,40.00,22,15,40,0.00
2013-7-6,90.0,80.6,75.0,40.0,30.8,22.0,27,17,9,0.00,40.00,23,16,38,0.00
2013-7-7,90.0,81.9,75.0,29.0,22.1,18.0,18,11,8,0.00,40.00,19,14,40,0.00
2013-7-8,87.0,78.6,74.0,22.0,18.5,12.0,13,11,8,0.00,40.00,24,17,52,0.00
2013-7-9,89.0,80.9,73.0,27.0,17.2,7.0,14,9,7,0.00,40.00,23,16,52,0.00
2013-7-10,86.0,79.1,75.0,43.0,29.4,-99.9,32,17,10,0.00,40.00,24,14,34,0.00
2013-7-11,79.0,72.9,69.0,55.0,45.2,38.0,61,38,29,0.00,40.00,30,12,42,0.00
2013-7-12,85.0,75.9,68.0,41.0,31.1,15.0,36,21,10,0.00,40.00,23,13,32,0.00
2013-7-13,85.0,79.0,72.0,32.0,25.2,15.0,20,14,10,0.00,40.00,23,14,45,0.00
2013-7-14,87.0,80.3,75.0,34.0,28.9,23.0,18,15,13,0.00,40.00,25,14,34,0.00
2013-7-15,89.0,82.2,75.0,38.0,31.9,23.0,23,16,13,0.00,40.00,19,11,38,0.00
2013-7-16,86.0,80.0,74.0,30.0,25.0,21.0,17,13,9,0.00,40.00,21,11,31,0.00
2013-7-17,87.0,77.3,66.0,35.0,20.7,6.0,19,13,5,0.00,40.00,15,7,22,0.00
2013-7-18,91.0,84.9,70.0,35.0,22.6,14.0,17,11,6,0.00,40.00,12,8,20,0.00
2013-7-19,96.0,89.5,76.0,32.0,26.8,16.0,13,11,8,0.00,40.00,15,10,26,0.00
2013-7-20,92.0,85.2,76.0,38.0,32.2,27.0,19,15,12,0.00,40.00,16,7,26,0.00
2013-7-21,88.0,79.8,72.0,58.0,44.2,35.0,61,29,19,0.00,40.00,14,5,24,0.00
2013-7-22,85.0,74.0,67.0,60.0,54.5,50.0,68,52,35,0.00,40.00,12,4,27,0.07
2013-7-23,85.0,74.2,65.0,61.0,52.7,47.0,74,48,31,0.00,40.00,15,6,27,0.06
2013-7-24,90.0,79.9,72.0,52.0,46.8,35.0,47,32,20,0.00,40.00,21,8,31,0.00
2013-7-25,92.0,84.0,76.0,43.0,39.0,31.0,29,21,12,0.00,40.00,18,10,30,0.00
2013-7-26,83.0,77.0,72.0,52.0,46.5,36.0,48,35,20,0.00,40.00,19,11,28,0.05
2013-7-27,83.0,75.7,69.0,55.0,51.9,47.0,56,44,35,0.00,40.00,12,6,23,0.02
2013-7-28,85.0,76.3,69.0,52.0,47.3,41.0,48,37,28,0.00,40.00,16,7,31,0.00
2013-7-29,85.0,75.0,66.0,46.0,39.1,27.0,48,29,12,0.00,40.00,20,8,33,0.00
2013-7-30,84.0,78.0,69.0,42.0,35.2,28.0,26,22,16,0.00,40.00,19,8,30,0.00
2013-7-31,84.0,78.8,71.0,42.0,26.3,6.0,31,17,5,0.00,40.00,20,14,34,0.00
2013-8-1,83.0,76.6,67.0,31.0,27.8,20.0,26,17,11,0.00,40.00,26,17,39,0.00
2013-8-2,85.0,75.3,65.0,29.0,24.9,16.0,23,16,9,0.00,40.00,19,5,35,0.00
2013-8-3,86.0,78.6,66.0,23.0,17.5,13.0,14,10,7,0.00,40.00,16,8,25,0.00
2013-8-4,86.0,80.3,73.0,27.0,15.5,9.0,16,9,6,0.00,40.00,21,10,31,0.00
2013-8-5,87.0,78.7,73.0,24.0,16.2,10.0,12,10,8,0.00,40.00,20,9,34,0.00
2013-8-6,87.0,80.0,70.0,30.0,23.2,18.0,20,13,8,0.00,40.00,24,15,36,0.00
2013-8-8,79.0,72.2,66.0,28.0,21.7,10.0,23,16,7,0.00,40.00,24,13,37,0.00
2013-8-9,78.0,73.4,68.0,35.0,27.2,15.0,29,19,11,0.00,40.00,19,11,28,0.00
2013-8-10,81.0,72.9,65.0,36.0,32.1,16.0,27,23,13,0.00,40.00,25,11,34,0.00
2013-8-11,82.0,77.3,70.0,39.0,27.3,13.0,29,17,8,0.00,40.00,18,10,32,0.00
2013-8-12,85.0,79.8,73.0,32.0,24.9,18.0,22,14,9,0.00,40.00,20,12,33,0.00
2013-8-13,87.0,82.1,76.0,27.0,20.1,11.0,16,10,6,0.00,40.00,14,8,22,0.00
2013-8-14,88.0,82.6,76.0,25.0,14.3,-99.9,13,9,6,0.00,40.00,21,13,28,0.00
2013-8-15,88.0,75.6,75.0,32.0,15.4,-99.9,17,13,10,0.00,40.00,19,13,34,0.00
2013-8-16,89.0,81.6,77.0,42.0,36.1,-99.9,26,20,15,0.00,40.00,18,12,31,0.00
2013-8-17,90.0,81.4,75.0,42.0,34.2,-99.9,26,19,13,0.00,40.00,18,8,35,0.00
2013-8-18,90.0,82.2,71.0,45.0,36.6,19.0,36,21,10,0.00,40.00,13,6,26,0.00
2013-8-19,86.0,74.0,69.0,51.0,40.5,-99.9,44,34,28,0.00,40.00,22,7,33,0.00
2013-8-20,87.0,78.2,71.0,48.0,38.6,-99.9,40,27,11,0.00,40.00,16,8,30,0.00
2013-8-21,87.0,79.4,71.0,40.0,36.4,33.0,27,22,15,0.00,40.00,19,7,38,0.00
2013-8-22,86.0,78.6,70.0,38.0,33.5,26.0,29,20,12,0.00,40.00,21,8,49,0.00
2013-8-23,83.0,76.5,69.0,30.0,23.0,13.0,22,14,7,0.00,40.00,22,14,43,0.00
2013-8-24,84.0,75.5,69.0,31.0,22.3,-99.9,22,15,7,0.00,40.00,21,11,35,0.00
2013-8-25,82.0,72.8,63.0,38.0,26.0,20.0,34,18,12,0.00,40.00,19,12,36,0.00
2013-8-26,80.0,68.8,60.0,55.0,48.5,34.0,68,50,30,0.00,40.00,11,4,23,0.00
2013-8-27,73.0,66.7,62.0,56.0,53.5,51.0,69,62,50,0.00,40.00,8,2,14,0.00
2013-8-28,84.0,78.8,75.0,52.0,47.3,41.0,39,33,29,0.00,40.00,19,11,35,0.00
2013-8-29,87.0,79.7,74.0,53.0,42.0,40.0,43,26,21,0.00,40.00,12,8,24,0.00
2013-8-30,87.0,77.5,70.0,61.0,51.8,47.0,72,42,31,0.00,40.00,14,5,22,0.49
2013-8-31,84.0,75.1,68.0,56.0,50.3,-99.9,62,44,32,0.00,40.00,18,7,29,0.49
2013-9-1,85.0,75.4,68.0,50.0,46.4,42.0,46,36,23,0.00,40.00,21,8,39,0.00
2013-9-2,84.0,77.2,71.0,49.0,45.7,40.0,45,33,21,0.00,40.00,21,12,39,0.00
2013-9-3,82.0,77.0,73.0,48.0,45.3,41.0,38,33,26,0.00,40.00,21,11,35,0.00
2013-9-4,86.0,78.8,73.0,47.0,43.6,39.0,37,29,21,0.00,40.00,21,8,33,0.00
2013-9-5,87.0,78.7,72.0,45.0,41.4,39.0,31,27,20,0.00,40.00,18,11,30,0.00
2013-9-6,88.0,79.1,74.0,41.0,35.6,31.0,29,21,15,0.00,40.00,20,14,33,0.00
2013-9-7,85.0,77.7,70.0,34.0,26.4,-99.9,23,16,8,0.00,40.00,18,10,30,0.00
2013-9-8,84.0,76.5,66.0,49.0,40.8,22.0,55,30,14,0.00,40.00,15,6,23,0.00
2013-9-9,84.0,74.8,67.0,46.0,39.6,33.0,44,29,19,0.00,40.00,18,8,29,0.00
2013-9-10,81.0,73.8,64.0,45.0,37.4,30.0,36,27,19,0.00,40.00,17,9,28,0.00
2013-9-11,80.0,72.1,63.0,40.0,37.0,31.0,38,28,21,0.00,40.00,16,5,28,0.00
2013-9-12,82.0,72.8,65.0,41.0,37.0,33.0,33,27,19,0.00,40.00,17,6,29,0.00
2013-9-13,83.0,74.8,68.0,43.0,40.0,35.0,35,29,21,0.00,40.00,15,6,22,0.00
2013-9-14,86.0,76.8,69.0,42.0,36.9,-99.9,34,25,17,0.00,40.00,16,7,31,0.00
2013-9-15,85.0,79.7,74.0,32.0,29.5,26.0,20,16,12,0.00,40.00,21,15,40,0.00
2013-9-16,83.0,77.2,70.0,33.0,29.3,25.0,22,17,12,0.00,40.00,19,12,37,0.00
2013-9-17,76.0,68.0,61.0,37.0,27.1,7.0,41,23,7,0.00,40.00,26,19,49,0.00
2013-9-18,66.0,66.0,66.0,21.0,21.0,21.0,18,18,18,0.00,40.00,4,4,9,0.00
2013-9-19,81.0,72.3,65.0,21.0,11.8,8.0,18,10,7,0.00,40.00,9,6,23,0.00
2013-9-20,80.0,71.2,63.0,36.0,22.1,15.0,35,17,10,0.00,40.00,25,12,45,0.00
2013-9-21,66.0,59.6,48.0,39.0,30.7,-99.9,67,36,23,0.00,40.00,33,23,64,0.00
2013-9-22,66.0,55.9,44.0,35.0,26.2,16.0,61,35,18,0.00,40.00,26,13,53,0.00
2013-9-23,75.0,67.8,57.0,27.0,22.8,19.0,24,18,14,0.00,40.00,8,4,19,0.00
2013-9-24,76.0,67.8,60.0,27.0,22.2,12.0,28,19,10,0.00,40.00,25,13,42,0.00
2013-9-25,60.0,56.0,46.0,38.0,31.6,23.0,58,40,28,0.00,40.00,28,19,67,0.00
2013-9-26,56.0,48.9,41.0,25.0,20.5,13.0,47,33,23,0.00,40.00,25,14,45,0.00
2013-9-27,65.0,55.8,47.0,18.0,13.8,12.0,30,19,13,0.00,40.00,8,5,17,0.00
2013-9-28,70.0,59.1,50.0,18.0,11.6,-99.9,21,16,10,0.00,40.00,11,6,19,0.00
2013-9-29,75.0,68.1,59.0,20.0,16.5,10.0,19,14,11,0.00,40.00,33,14,52,0.00
2013-9-30,78.0,66.4,59.0,32.0,23.3,17.0,27,20,12,0.00,40.00,27,12,47,0.00
2013-10-1,70.0,69.5,69.0,39.0,38.5,38.0,32,32,32,0.00,40.00,25,24,35,0.00
2013-10-2,70.0,63.8,58.0,37.0,33.3,29.0,41,32,26,0.00,40.00,33,22,49,0.00
2013-10-3,69.0,60.5,50.0,24.0,16.6,12.0,32,18,11,0.00,40.00,29,11,42,0.00
2013-10-4,62.0,52.5,45.0,14.0,2.8,-1.0,23,13,8,0.00,40.00,15,8,36,0.00
2013-10-5,67.0,56.8,50.0,6.0,4.0,0.0,14,12,9,0.00,40.00,16,8,29,0.00
2013-10-6,72.0,62.5,55.0,1.0,-1.1,-12.0,10,8,5,0.00,40.00,8,4,15,0.00
2013-10-7,71.0,63.3,56.0,3.0,-1.1,-13.0,9,7,5,0.00,40.00,28,9,41,0.00
2013-10-8,69.0,61.9,55.0,15.0,7.8,-6.0,20,12,6,0.00,40.00,28,14,43,0.00
2013-10-9,56.0,46.1,39.0,30.0,24.6,13.0,69,45,18,0.00,40.00,27,15,49,0.00
2013-10-10,58.0,49.0,39.0,32.0,27.6,23.0,69,45,27,0.00,40.00,14,5,24,0.00
2013-10-11,63.0,55.9,47.0,29.0,24.8,20.0,41,30,24,0.00,40.00,16,8,29,0.00
2013-10-12,64.0,57.6,51.0,27.0,15.2,-99.9,28,20,10,0.00,40.00,29,9,42,0.00
2013-10-13,62.0,52.4,47.0,34.0,26.1,16.0,60,38,19,0.00,40.00,23,9,40,0.00
2013-10-14,63.0,53.1,47.0,23.0,21.0,18.0,37,29,20,0.00,40.00,9,6,19,0.00
2013-10-15,62.0,54.7,49.0,22.0,18.1,14.0,30,24,17,0.00,40.00,11,4,29,0.00
2013-10-16,62.0,53.0,46.0,15.0,11.0,6.0,25,19,12,0.00,40.00,11,4,21,0.00
2013-10-17,66.0,56.7,50.0,21.0,11.2,6.0,24,17,11,0.00,40.00,8,5,14,0.00
2013-10-18,70.0,61.1,56.0,10.0,7.8,6.0,14,12,9,0.00,40.00,8,6,22,0.00
2013-10-19,73.0,62.1,54.0,9.0,4.9,-99.9,14,10,8,0.00,40.00,9,6,14,0.00
2013-10-20,75.0,66.0,59.0,10.0,5.3,0.0,11,9,7,0.00,40.00,8,5,14,0.00
2013-10-21,73.0,64.4,58.0,11.0,7.1,3.0,15,10,8,0.00,40.00,8,6,19,0.00
2013-10-22,72.0,62.1,56.0,14.0,11.3,9.0,17,14,10,0.00,40.00,8,6,15,0.00
2013-10-23,71.0,61.1,57.0,15.0,12.1,10.0,18,15,10,0.00,40.00,8,6,16,0.00
2013-10-24,72.0,66.9,57.0,12.0,11.1,10.0,16,12,9,0.00,40.00,8,5,17,0.00
2013-10-25,74.0,70.1,62.0,12.0,11.1,9.0,14,10,9,0.00,40.00,7,4,13,0.00
2013-10-26,73.0,68.9,59.0,15.0,11.3,9.0,15,11,9,0.00,40.00,6,4,13,0.00
2013-10-27,69.0,65.7,62.0,20.0,15.8,12.0,19,14,12,0.00,40.00,16,9,44,0.00
2013-10-28,39.0,37.9,36.0,31.0,28.5,25.0,76,69,60,0.00,40.00,20,15,36,0.00
2013-10-29,45.0,41.4,37.0,31.0,29.0,26.0,64,61,57,0.00,40.00,15,10,37,0.00
2013-10-30,54.0,50.0,39.0,27.0,24.7,22.0,57,38,31,0.00,40.00,6,4,11,0.00
2013-10-31,60.0,55.9,46.0,19.0,14.0,12.0,25,19,17,0.00,40.00,6,4,14,0.00
2013-11-1,64.0,60.6,52.0,20.0,17.1,16.0,24,18,16,0.00,40.00,6,3,14,0.00
2013-11-2,65.0,59.9,52.0,19.0,17.1,9.0,20,19,17,0.00,40.00,6,3,12,0.00
2013-11-3,61.0,57.2,50.0,22.0,18.1,15.0,30,22,19,0.00,40.00,23,8,33,0.00
2013-11-4,55.0,51.8,45.0,23.0,19.3,16.0,42,28,23,0.00,40.00,7,5,15,0.00
2013-11-5,53.0,47.9,40.0,4.0,2.6,1.0,20,15,12,0.00,40.00,8,5,22,0.00
2013-11-6,61.0,56.2,46.0,4.0,2.0,0.0,14,11,10,0.00,40.00,4,2,11,0.00
2013-11-7,63.0,56.6,52.0,17.0,13.4,11.0,25,18,14,0.00,40.00,5,3,13,0.00
2013-11-8,63.0,53.9,48.0,12.0,10.4,9.0,21,17,12,0.00,40.00,5,2,13,0.00
2013-11-9,63.0,54.2,49.0,11.0,5.3,-99.9,19,14,9,0.00,40.00,6,2,11,0.00
2013-11-10,65.0,55.9,51.0,9.0,4.8,-1.0,15,12,10,0.00,40.00,8,4,11,0.00
2013-11-11,70.0,58.8,52.0,12.0,3.8,-1.0,14,11,7,0.00,40.00,8,4,12,0.00
2013-11-12,69.0,61.7,57.0,11.0,6.6,-1.0,14,11,8,0.00,40.00,8,3,12,0.00
2013-11-13,69.0,60.9,54.0,21.0,15.5,9.0,22,17,13,0.00,40.00,8,5,14,0.00
2013-11-14,67.0,60.1,55.0,20.0,17.5,11.0,23,19,15,0.00,40.00,28,10,44,0.00
2013-11-15,59.0,51.9,46.0,26.0,18.8,11.0,42,28,16,0.00,40.00,28,14,53,0.00
2013-11-16,56.0,47.8,43.0,31.0,23.8,-99.9,47,40,33,0.00,40.00,26,12,44,0.00
2013-11-17,54.0,46.3,41.0,32.0,26.7,22.0,59,47,37,0.00,40.00,7,4,12,0.00
2013-11-18,55.0,48.3,43.0,34.0,31.1,27.0,63,51,41,0.00,40.00,30,6,35,0.00
2013-11-19,52.0,48.3,44.0,32.0,28.7,22.0,53,46,34,0.00,40.00,27,3,39,0.00
2013-11-20,58.0,49.1,42.0,38.0,33.5,25.0,76,56,34,0.00,40.00,22,13,41,0.00
2013-11-21,49.0,42.5,35.0,38.0,32.7,26.0,82,68,51,0.00,40.00,18,9,40,0.18
2013-11-22,38.0,34.3,32.0,31.0,27.9,22.0,93,78,57,0.00,40.00,18,13,57,0.22
2013-11-23,39.0,35.3,32.0,32.0,26.5,-99.9,87,72,59,0.00,40.00,15,6,49,0.10
2013-11-24,46.0,39.5,33.0,32.0,25.2,20.0,79,57,40,0.00,40.00,5,2,19,0.02
2013-11-25,58.0,49.6,41.0,29.0,21.4,11.0,41,33,19,0.00,40.00,6,3,17,0.00
2013-11-26,56.0,49.6,44.0,24.0,19.2,11.0,39,30,19,0.00,40.00,6,2,14,0.00
2013-11-27,52.0,45.3,40.0,30.0,25.4,21.0,63,46,35,0.00,40.00,8,3,13,0.00
2013-11-28,48.0,43.2,40.0,30.0,24.9,22.0,61,49,36,0.00,40.00,10,5,14,0.00
2013-11-29,49.0,44.9,42.0,27.0,24.1,22.0,49,44,37,0.00,40.00,6,4,17,0.00
2013-11-30,55.0,47.9,45.0,23.0,20.0,-99.9,39,33,27,0.00,40.00,6,4,13,0.00
2013-12-1,60.0,51.0,44.0,20.0,14.6,6.0,30,24,15,0.00,40.00,7,3,19,0.00
2013-12-2,66.0,56.3,50.0,18.0,8.8,6.0,18,15,10,0.00,40.00,20,10,39,0.00
2013-12-3,52.0,44.7,34.0,36.0,25.9,10.0,78,52,18,0.00,40.00,30,18,60,0.00
2013-12-4,35.0,29.6,24.0,21.0,6.6,1.0,58,38,24,0.00,40.00,12,5,34,0.00
2013-12-5,32.0,26.0,22.0,8.0,5.0,3.0,50,41,29,0.00,40.00,6,3,14,0.00
2013-12-6,35.0,28.8,22.0,7.0,0.8,-14.0,49,32,13,0.00,40.00,21,6,46,0.00
2013-12-7,32.0,27.3,24.0,29.0,13.5,-99.9,96,60,18,0.00,40.00,39,21,69,0.00
2013-12-8,30.0,24.5,19.0,11.0,6.9,0.0,57,47,33,0.00,40.00,7,4,18,0.00
2013-12-9,35.0,27.9,22.0,4.0,-1.5,-9.0,46,28,16,0.00,40.00,17,4,31,0.00
2013-12-10,48.0,38.3,27.0,9.0,1.6,-5.0,26,21,13,0.00,40.00,4,1,9,0.00
2013-12-11,52.0,42.1,36.0,11.0,5.5,0.0,28,22,16,0.00,40.00,11,3,19,0.00
2013-12-12,53.0,43.9,39.0,14.0,7.8,1.0,31,23,16,0.00,40.00,8,2,24,0.00
2013-12-13,54.0,46.7,39.0,17.0,6.1,2.0,33,19,12,0.00,40.00,12,4,33,0.00
2013-12-14,55.0,45.9,43.0,17.0,9.3,-99.9,32,23,14,0.00,40.00,12,5,35,0.00
2013-12-15,64.0,52.7,43.0,14.0,8.5,4.0,20,17,11,0.00,40.00,7,2,14,0.00
2013-12-16,67.0,58.1,52.0,16.0,12.7,10.0,20,17,11,0.00,40.00,7,4,11,0.00
2013-12-17,66.0,57.1,52.0,18.0,12.8,10.0,22,17,12,0.00,40.00,7,3,11,0.00
2013-12-18,59.0,52.9,48.0,18.0,14.7,11.0,28,22,18,0.00,40.00,21,6,56,0.00
2013-12-19,48.0,38.7,33.0,30.0,22.9,12.0,86,56,26,0.00,40.00,29,12,56,0.02
2013-12-20,46.0,38.6,33.0,18.0,13.3,7.0,46,36,20,0.00,40.00,9,3,33,0.01
2013-12-21,55.0,45.2,41.0,26.0,20.9,-99.9,50,39,28,0.00,40.00,8,4,13,0.00
2013-12-22,52.0,44.5,39.0,24.0,22.2,18.0,52,42,31,0.00,40.00,8,4,12,0.00
2013-12-23,54.0,46.4,41.0,28.0,25.5,22.0,53,44,34,0.00,40.00,7,3,10,0.00
2013-12-24,62.0,52.2,46.0,23.0,18.2,14.0,37,27,16,0.00,40.00,9,3,24,0.00
2013-12-25,57.0,51.3,46.0,19.0,1.5,-13.0,30,14,6,0.00,40.00,8,4,27,0.00
2013-12-26,61.0,55.2,49.0,-4.0,-11.2,-18.0,8,6,4,0.00,40.00,10,4,24,0.00
2013-12-27,64.0,56.2,52.0,2.0,-5.4,-18.0,11,8,4,0.00,40.00,7,3,20,0.00
2013-12-28,58.0,52.4,41.0,3.0,-2.9,-99.9,20,10,6,0.00,40.00,16,7,30,0.00
2013-12-29,54.0,47.0,41.0,3.0,-5.5,-13.0,20,11,6,0.00,40.00,15,5,30,0.00
2013-12-30,57.0,47.2,42.0,2.0,-2.6,-9.0,17,12,9,0.00,40.00,6,2,9,0.00
2013-12-31,57.0,49.2,43.0,7.0,2.9,-1.0,18,15,11,0.00,40.00,7,2,11,0.00
2014-1-1,60.0,52.5,47.0,19.0,11.8,6.0,30,20,15,0.00,40.00,8,4,13,0.00
2014-1-2,58.0,49.7,44.0,21.0,19.3,18.0,36,30,22,0.00,40.00,8,5,10,0.00